ウルムチ の空港の天気 - METARとTAF

ウルムチ地窩堡国際空港 ( ZWWW / URC ) - 中国 新疆ウイグル自治区ウルムチ市
飛行場実況気象(Metar)
観測時間05/28 17:00 CST (05/28 09:00 UTC)
風向・風速北北西 5m/s
視程10km以上
天気現象
なし
気温33℃
湿度13%
気圧1007hPa
METARZWWW 280900Z 33005MPS 290V360 CAVOK 33/01 Q1007 NOSIG
過去の天気等 Google飛行場航空写真 Wunderground天気予報

過去48時間のMETAR

飛行場予報(TAF)
発表時間: 5/28 11:13 CST (5/28 03:13 UTC)
予報対象時間: 28日14時 CST ~ 29日14時 CST
風向・風速西北西 4m/s 瞬間風速 9m/s
視程10km以上
少しの積乱雲 雲底高度 1220m
28日21時 CST ~ 28日22時 CST に徐々に
風向・風速南 4m/s
視程10km以上
なし
29日9時 CST ~ 29日10時 CST に徐々に
風向・風速西北西 4m/s 瞬間風速 9m/s
TAF ZWWW 280313Z 2806/2906 30004G09MPS 9999 FEW040CB TX35/2809Z TN26/2823Z
BECMG 2813/2814 18004MPS CAVOK
BECMG 2901/2902 30004G09MPS